sensor_id;sensor_type;location;lat;lon;timestamp;P1;durP1;ratioP1;P2;durP2;ratioP2
9413;SDS011;4746;35.664;139.738;2023-07-13T00:01:16;3.53;;;3.22;;
9413;SDS011;4746;35.664;139.738;2023-07-13T00:03:44;4.32;;;3.40;;
9413;SDS011;4746;35.664;139.738;2023-07-13T00:06:13;2.95;;;2.83;;
9413;SDS011;4746;35.664;139.738;2023-07-13T00:08:41;4.03;;;3.60;;
9413;SDS011;4746;35.664;139.738;2023-07-13T00:11:08;3.55;;;3.20;;
9413;SDS011;4746;35.664;139.738;2023-07-13T00:13:36;3.25;;;3.05;;
9413;SDS011;4746;35.664;139.738;2023-07-13T00:16:04;4.70;;;3.42;;
9413;SDS011;4746;35.664;139.738;2023-07-13T00:18:33;3.15;;;2.80;;
9413;SDS011;4746;35.664;139.738;2023-07-13T00:21:01;3.17;;;2.97;;
9413;SDS011;4746;35.664;139.738;2023-07-13T00:23:32;4.90;;;3.08;;
9413;SDS011;4746;35.664;139.738;2023-07-13T00:26:07;3.65;;;3.35;;
9413;SDS011;4746;35.664;139.738;2023-07-13T00:28:38;4.15;;;3.83;;
9413;SDS011;4746;35.664;139.738;2023-07-13T00:31:07;3.63;;;3.30;;
9413;SDS011;4746;35.664;139.738;2023-07-13T00:33:37;6.05;;;3.70;;
9413;SDS011;4746;35.664;139.738;2023-07-13T00:36:05;4.10;;;3.80;;
9413;SDS011;4746;35.664;139.738;2023-07-13T00:38:35;3.58;;;3.38;;
9413;SDS011;4746;35.664;139.738;2023-07-13T00:41:03;4.05;;;3.55;;
9413;SDS011;4746;35.664;139.738;2023-07-13T00:43:31;4.28;;;3.85;;
9413;SDS011;4746;35.664;139.738;2023-07-13T00:48:39;3.90;;;3.60;;
9413;SDS011;4746;35.664;139.738;2023-07-13T00:51:10;4.20;;;3.80;;
9413;SDS011;4746;35.664;139.738;2023-07-13T00:53:39;4.70;;;4.20;;
9413;SDS011;4746;35.664;139.738;2023-07-13T00:56:07;4.88;;;4.20;;
9413;SDS011;4746;35.664;139.738;2023-07-13T00:58:36;5.32;;;4.40;;
9413;SDS011;4746;35.664;139.738;2023-07-13T01:01:04;4.38;;;4.07;;
9413;SDS011;4746;35.664;139.738;2023-07-13T01:03:32;5.57;;;4.50;;
9413;SDS011;4746;35.664;139.738;2023-07-13T01:06:01;4.22;;;3.83;;
9413;SDS011;4746;35.664;139.738;2023-07-13T01:08:29;5.03;;;4.55;;
9413;SDS011;4746;35.664;139.738;2023-07-13T01:10:57;5.60;;;4.65;;
9413;SDS011;4746;35.664;139.738;2023-07-13T01:13:25;5.63;;;5.15;;
9413;SDS011;4746;35.664;139.738;2023-07-13T01:15:54;4.88;;;4.38;;
9413;SDS011;4746;35.664;139.738;2023-07-13T01:18:29;4.95;;;4.55;;
9413;SDS011;4746;35.664;139.738;2023-07-13T01:20:59;5.80;;;5.30;;
9413;SDS011;4746;35.664;139.738;2023-07-13T01:23:30;5.75;;;5.25;;
9413;SDS011;4746;35.664;139.738;2023-07-13T01:25:59;5.88;;;4.85;;
9413;SDS011;4746;35.664;139.738;2023-07-13T01:28:27;8.23;;;4.82;;
9413;SDS011;4746;35.664;139.738;2023-07-13T01:30:58;4.93;;;4.43;;
9413;SDS011;4746;35.664;139.738;2023-07-13T01:33:25;5.22;;;4.70;;
9413;SDS011;4746;35.664;139.738;2023-07-13T01:35:53;5.18;;;3.83;;
9413;SDS011;4746;35.664;139.738;2023-07-13T01:38:23;3.92;;;3.63;;
9413;SDS011;4746;35.664;139.738;2023-07-13T01:40:51;4.65;;;4.03;;
9413;SDS011;4746;35.664;139.738;2023-07-13T01:43:19;3.38;;;3.17;;
9413;SDS011;4746;35.664;139.738;2023-07-13T01:45:47;2.75;;;2.50;;
9413;SDS011;4746;35.664;139.738;2023-07-13T01:48:15;3.22;;;2.65;;
9413;SDS011;4746;35.664;139.738;2023-07-13T01:50:42;3.00;;;2.20;;
9413;SDS011;4746;35.664;139.738;2023-07-13T01:53:10;1.92;;;1.70;;
9413;SDS011;4746;35.664;139.738;2023-07-13T01:55:39;2.00;;;1.90;;
9413;SDS011;4746;35.664;139.738;2023-07-13T01:58:08;2.35;;;2.15;;
9413;SDS011;4746;35.664;139.738;2023-07-13T02:00:35;3.53;;;2.40;;
9413;SDS011;4746;35.664;139.738;2023-07-13T02:03:03;1.92;;;1.83;;
9413;SDS011;4746;35.664;139.738;2023-07-13T02:05:30;1.92;;;1.83;;
9413;SDS011;4746;35.664;139.738;2023-07-13T02:07:58;2.78;;;1.80;;
9413;SDS011;4746;35.664;139.738;2023-07-13T02:10:27;2.03;;;1.83;;
9413;SDS011;4746;35.664;139.738;2023-07-13T02:12:55;1.80;;;1.70;;
9413;SDS011;4746;35.664;139.738;2023-07-13T02:15:23;2.25;;;2.05;;
9413;SDS011;4746;35.664;139.738;2023-07-13T02:17:50;2.13;;;1.65;;
9413;SDS011;4746;35.664;139.738;2023-07-13T02:20:18;3.47;;;2.05;;
9413;SDS011;4746;35.664;139.738;2023-07-13T02:22:45;2.28;;;2.17;;
9413;SDS011;4746;35.664;139.738;2023-07-13T02:25:13;2.72;;;2.22;;
9413;SDS011;4746;35.664;139.738;2023-07-13T02:27:40;2.15;;;2.05;;
9413;SDS011;4746;35.664;139.738;2023-07-13T02:30:08;2.13;;;2.00;;
9413;SDS011;4746;35.664;139.738;2023-07-13T02:32:37;2.30;;;2.08;;
9413;SDS011;4746;35.664;139.738;2023-07-13T02:35:05;2.88;;;2.30;;
9413;SDS011;4746;35.664;139.738;2023-07-13T02:37:33;3.15;;;2.47;;
9413;SDS011;4746;35.664;139.738;2023-07-13T02:40:00;3.58;;;2.92;;
9413;SDS011;4746;35.664;139.738;2023-07-13T02:42:34;3.67;;;2.53;;
9413;SDS011;4746;35.664;139.738;2023-07-13T02:45:04;4.38;;;3.03;;
9413;SDS011;4746;35.664;139.738;2023-07-13T02:47:33;3.95;;;3.63;;
9413;SDS011;4746;35.664;139.738;2023-07-13T02:50:02;4.13;;;3.72;;
9413;SDS011;4746;35.664;139.738;2023-07-13T02:52:30;4.03;;;3.72;;
9413;SDS011;4746;35.664;139.738;2023-07-13T02:54:58;5.32;;;3.80;;
9413;SDS011;4746;35.664;139.738;2023-07-13T02:57:26;3.97;;;3.67;;
9413;SDS011;4746;35.664;139.738;2023-07-13T02:59:53;4.20;;;3.85;;
9413;SDS011;4746;35.664;139.738;2023-07-13T03:02:21;4.63;;;3.75;;
9413;SDS011;4746;35.664;139.738;2023-07-13T03:04:48;4.35;;;4.03;;
9413;SDS011;4746;35.664;139.738;2023-07-13T03:07:16;7.43;;;4.55;;
9413;SDS011;4746;35.664;139.738;2023-07-13T03:09:43;5.43;;;4.38;;
9413;SDS011;4746;35.664;139.738;2023-07-13T03:12:11;4.97;;;4.45;;
9413;SDS011;4746;35.664;139.738;2023-07-13T03:14:38;5.18;;;3.83;;
9413;SDS011;4746;35.664;139.738;2023-07-13T03:17:06;4.20;;;3.75;;
9413;SDS011;4746;35.664;139.738;2023-07-13T03:19:33;4.95;;;4.00;;
9413;SDS011;4746;35.664;139.738;2023-07-13T03:22:01;3.90;;;3.60;;
9413;SDS011;4746;35.664;139.738;2023-07-13T03:24:29;3.70;;;3.40;;
9413;SDS011;4746;35.664;139.738;2023-07-13T03:26:58;5.95;;;3.75;;
9413;SDS011;4746;35.664;139.738;2023-07-13T03:29:28;4.25;;;3.70;;
9413;SDS011;4746;35.664;139.738;2023-07-13T03:31:55;4.57;;;4.00;;
9413;SDS011;4746;35.664;139.738;2023-07-13T03:34:23;6.32;;;3.88;;
9413;SDS011;4746;35.664;139.738;2023-07-13T03:36:53;4.57;;;3.47;;
9413;SDS011;4746;35.664;139.738;2023-07-13T03:39:21;3.30;;;3.05;;
9413;SDS011;4746;35.664;139.738;2023-07-13T03:41:49;3.13;;;2.88;;
9413;SDS011;4746;35.664;139.738;2023-07-13T03:44:16;4.47;;;2.80;;
9413;SDS011;4746;35.664;139.738;2023-07-13T03:46:45;2.20;;;2.10;;
9413;SDS011;4746;35.664;139.738;2023-07-13T03:49:12;2.80;;;2.60;;
9413;SDS011;4746;35.664;139.738;2023-07-13T03:51:40;3.83;;;2.70;;
9413;SDS011;4746;35.664;139.738;2023-07-13T03:54:07;2.55;;;2.35;;
9413;SDS011;4746;35.664;139.738;2023-07-13T03:56:35;2.75;;;2.55;;
9413;SDS011;4746;35.664;139.738;2023-07-13T03:59:03;4.85;;;2.60;;
9413;SDS011;4746;35.664;139.738;2023-07-13T04:01:33;3.45;;;3.17;;
9413;SDS011;4746;35.664;139.738;2023-07-13T04:04:22;3.25;;;2.40;;
9413;SDS011;4746;35.664;139.738;2023-07-13T04:07:21;2.17;;;1.77;;
9413;SDS011;4746;35.664;139.738;2023-07-13T04:09:48;3.20;;;2.38;;
9413;SDS011;4746;35.664;139.738;2023-07-13T04:12:16;3.40;;;3.08;;
9413;SDS011;4746;35.664;139.738;2023-07-13T04:14:44;3.60;;;3.30;;
9413;SDS011;4746;35.664;139.738;2023-07-13T04:17:14;4.15;;;3.67;;
9413;SDS011;4746;35.664;139.738;2023-07-13T04:19:42;3.53;;;3.22;;
9413;SDS011;4746;35.664;139.738;2023-07-13T04:22:13;3.53;;;3.10;;
9413;SDS011;4746;35.664;139.738;2023-07-13T04:24:43;4.53;;;4.03;;
9413;SDS011;4746;35.664;139.738;2023-07-13T04:27:16;3.97;;;3.67;;
9413;SDS011;4746;35.664;139.738;2023-07-13T04:29:51;4.25;;;3.88;;
9413;SDS011;4746;35.664;139.738;2023-07-13T04:32:18;4.85;;;3.17;;
9413;SDS011;4746;35.664;139.738;2023-07-13T04:34:47;3.65;;;3.35;;
9413;SDS011;4746;35.664;139.738;2023-07-13T04:37:20;4.05;;;3.65;;
9413;SDS011;4746;35.664;139.738;2023-07-13T04:39:47;4.45;;;3.28;;
9413;SDS011;4746;35.664;139.738;2023-07-13T04:42:15;4.28;;;3.65;;
9413;SDS011;4746;35.664;139.738;2023-07-13T04:44:49;3.35;;;3.15;;
9413;SDS011;4746;35.664;139.738;2023-07-13T04:47:17;4.10;;;3.00;;
9413;SDS011;4746;35.664;139.738;2023-07-13T04:49:45;3.30;;;3.00;;
9413;SDS011;4746;35.664;139.738;2023-07-13T04:52:13;3.28;;;2.90;;
9413;SDS011;4746;35.664;139.738;2023-07-13T04:54:40;3.67;;;3.35;;
9413;SDS011;4746;35.664;139.738;2023-07-13T04:57:08;4.90;;;3.78;;
9413;SDS011;4746;35.664;139.738;2023-07-13T04:59:36;4.03;;;3.72;;
9413;SDS011;4746;35.664;139.738;2023-07-13T05:02:03;5.97;;;5.13;;
9413;SDS011;4746;35.664;139.738;2023-07-13T05:04:31;5.38;;;4.88;;
9413;SDS011;4746;35.664;139.738;2023-07-13T05:06:59;8.98;;;4.57;;
9413;SDS011;4746;35.664;139.738;2023-07-13T05:09:27;5.18;;;4.68;;
9413;SDS011;4746;35.664;139.738;2023-07-13T05:11:55;5.72;;;4.75;;
9413;SDS011;4746;35.664;139.738;2023-07-13T05:14:22;5.38;;;4.30;;
9413;SDS011;4746;35.664;139.738;2023-07-13T05:16:50;5.55;;;4.38;;
9413;SDS011;4746;35.664;139.738;2023-07-13T05:19:17;3.95;;;3.63;;
9413;SDS011;4746;35.664;139.738;2023-07-13T05:21:45;4.95;;;4.43;;
9413;SDS011;4746;35.664;139.738;2023-07-13T05:24:12;4.72;;;4.32;;
9413;SDS011;4746;35.664;139.738;2023-07-13T05:26:40;4.18;;;3.85;;
9413;SDS011;4746;35.664;139.738;2023-07-13T05:29:07;5.13;;;4.47;;
9413;SDS011;4746;35.664;139.738;2023-07-13T05:31:35;5.20;;;4.70;;
9413;SDS011;4746;35.664;139.738;2023-07-13T05:34:02;4.65;;;3.95;;
9413;SDS011;4746;35.664;139.738;2023-07-13T05:36:30;4.45;;;4.05;;
9413;SDS011;4746;35.664;139.738;2023-07-13T05:38:58;5.20;;;4.45;;
9413;SDS011;4746;35.664;139.738;2023-07-13T05:41:27;3.80;;;3.50;;
9413;SDS011;4746;35.664;139.738;2023-07-13T05:43:56;4.18;;;3.78;;
9413;SDS011;4746;35.664;139.738;2023-07-13T05:46:25;4.68;;;3.15;;
9413;SDS011;4746;35.664;139.738;2023-07-13T05:48:53;3.70;;;3.33;;
9413;SDS011;4746;35.664;139.738;2023-07-13T05:51:21;3.30;;;3.08;;
9413;SDS011;4746;35.664;139.738;2023-07-13T05:53:48;3.92;;;3.53;;
9413;SDS011;4746;35.664;139.738;2023-07-13T05:56:16;3.30;;;3.00;;
9413;SDS011;4746;35.664;139.738;2023-07-13T05:58:43;3.08;;;2.75;;
9413;SDS011;4746;35.664;139.738;2023-07-13T06:01:14;3.38;;;3.08;;
9413;SDS011;4746;35.664;139.738;2023-07-13T06:03:44;3.13;;;2.83;;
9413;SDS011;4746;35.664;139.738;2023-07-13T06:06:12;2.90;;;2.65;;
9413;SDS011;4746;35.664;139.738;2023-07-13T06:08:43;2.72;;;2.55;;
9413;SDS011;4746;35.664;139.738;2023-07-13T06:11:15;2.90;;;2.63;;
9413;SDS011;4746;35.664;139.738;2023-07-13T06:13:46;3.05;;;2.85;;
9413;SDS011;4746;35.664;139.738;2023-07-13T06:16:15;3.30;;;2.70;;
9413;SDS011;4746;35.664;139.738;2023-07-13T06:18:43;3.40;;;2.50;;
9413;SDS011;4746;35.664;139.738;2023-07-13T06:21:13;5.78;;;2.63;;
9413;SDS011;4746;35.664;139.738;2023-07-13T06:23:47;3.45;;;3.15;;
9413;SDS011;4746;35.664;139.738;2023-07-13T06:26:17;2.70;;;2.50;;
9413;SDS011;4746;35.664;139.738;2023-07-13T06:28:46;2.85;;;2.65;;
9413;SDS011;4746;35.664;139.738;2023-07-13T06:31:14;3.00;;;2.80;;
9413;SDS011;4746;35.664;139.738;2023-07-13T06:33:42;3.80;;;3.40;;
9413;SDS011;4746;35.664;139.738;2023-07-13T06:36:12;3.78;;;3.47;;
9413;SDS011;4746;35.664;139.738;2023-07-13T06:38:41;3.67;;;3.40;;
9413;SDS011;4746;35.664;139.738;2023-07-13T06:41:09;2.88;;;2.67;;
9413;SDS011;4746;35.664;139.738;2023-07-13T06:43:38;3.45;;;3.13;;
9413;SDS011;4746;35.664;139.738;2023-07-13T06:46:05;3.67;;;3.38;;
9413;SDS011;4746;35.664;139.738;2023-07-13T06:48:33;3.22;;;3.03;;
9413;SDS011;4746;35.664;139.738;2023-07-13T06:51:01;3.45;;;3.15;;
9413;SDS011;4746;35.664;139.738;2023-07-13T06:53:30;3.38;;;3.10;;
9413;SDS011;4746;35.664;139.738;2023-07-13T06:55:58;4.85;;;3.50;;
9413;SDS011;4746;35.664;139.738;2023-07-13T06:58:25;3.40;;;3.20;;
9413;SDS011;4746;35.664;139.738;2023-07-13T07:00:53;4.53;;;3.30;;
9413;SDS011;4746;35.664;139.738;2023-07-13T07:03:22;3.50;;;3.20;;
9413;SDS011;4746;35.664;139.738;2023-07-13T07:05:50;3.88;;;3.58;;
9413;SDS011;4746;35.664;139.738;2023-07-13T07:08:17;3.50;;;3.20;;
9413;SDS011;4746;35.664;139.738;2023-07-13T07:10:45;4.15;;;3.40;;
9413;SDS011;4746;35.664;139.738;2023-07-13T07:13:16;3.33;;;3.13;;
9413;SDS011;4746;35.664;139.738;2023-07-13T07:15:44;3.33;;;3.13;;
9413;SDS011;4746;35.664;139.738;2023-07-13T07:18:22;3.20;;;2.85;;
9413;SDS011;4746;35.664;139.738;2023-07-13T07:20:49;3.83;;;3.53;;
9413;SDS011;4746;35.664;139.738;2023-07-13T07:23:17;4.82;;;3.40;;
9413;SDS011;4746;35.664;139.738;2023-07-13T07:25:44;3.28;;;2.97;;
9413;SDS011;4746;35.664;139.738;2023-07-13T07:28:13;3.95;;;3.60;;
9413;SDS011;4746;35.664;139.738;2023-07-13T07:30:45;4.30;;;3.90;;
9413;SDS011;4746;35.664;139.738;2023-07-13T07:33:14;3.50;;;3.30;;
9413;SDS011;4746;35.664;139.738;2023-07-13T07:35:42;4.10;;;3.15;;
9413;SDS011;4746;35.664;139.738;2023-07-13T07:38:10;4.22;;;3.85;;
9413;SDS011;4746;35.664;139.738;2023-07-13T07:40:38;4.60;;;3.70;;
9413;SDS011;4746;35.664;139.738;2023-07-13T07:43:07;4.72;;;4.07;;
9413;SDS011;4746;35.664;139.738;2023-07-13T07:45:37;3.22;;;3.00;;
9413;SDS011;4746;35.664;139.738;2023-07-13T07:48:06;3.70;;;3.42;;
9413;SDS011;4746;35.664;139.738;2023-07-13T07:50:40;3.72;;;3.17;;
9413;SDS011;4746;35.664;139.738;2023-07-13T07:53:10;6.65;;;4.03;;
9413;SDS011;4746;35.664;139.738;2023-07-13T07:55:38;3.85;;;3.55;;
9413;SDS011;4746;35.664;139.738;2023-07-13T07:58:06;4.35;;;3.95;;
9413;SDS011;4746;35.664;139.738;2023-07-13T08:00:33;4.15;;;3.70;;
9413;SDS011;4746;35.664;139.738;2023-07-13T08:03:01;5.68;;;4.25;;
9413;SDS011;4746;35.664;139.738;2023-07-13T08:05:29;4.20;;;3.90;;
9413;SDS011;4746;35.664;139.738;2023-07-13T08:07:57;4.13;;;3.83;;
9413;SDS011;4746;35.664;139.738;2023-07-13T08:10:24;3.30;;;3.10;;
9413;SDS011;4746;35.664;139.738;2023-07-13T08:12:52;4.00;;;3.70;;
9413;SDS011;4746;35.664;139.738;2023-07-13T08:15:19;4.82;;;3.63;;
9413;SDS011;4746;35.664;139.738;2023-07-13T08:17:48;4.75;;;4.35;;
9413;SDS011;4746;35.664;139.738;2023-07-13T08:20:16;4.20;;;3.80;;
9413;SDS011;4746;35.664;139.738;2023-07-13T08:22:43;4.80;;;4.40;;
9413;SDS011;4746;35.664;139.738;2023-07-13T08:25:11;4.53;;;3.95;;
9413;SDS011;4746;35.664;139.738;2023-07-13T08:27:39;4.35;;;3.95;;
9413;SDS011;4746;35.664;139.738;2023-07-13T08:30:07;4.38;;;3.97;;
9413;SDS011;4746;35.664;139.738;2023-07-13T08:32:36;4.88;;;4.32;;
9413;SDS011;4746;35.664;139.738;2023-07-13T08:35:05;5.05;;;3.95;;
9413;SDS011;4746;35.664;139.738;2023-07-13T08:37:33;5.13;;;4.60;;
9413;SDS011;4746;35.664;139.738;2023-07-13T08:40:00;4.28;;;3.88;;
9413;SDS011;4746;35.664;139.738;2023-07-13T08:42:42;3.97;;;3.67;;
9413;SDS011;4746;35.664;139.738;2023-07-13T08:47:57;4.57;;;4.13;;
9413;SDS011;4746;35.664;139.738;2023-07-13T08:51:43;4.35;;;4.03;;
9413;SDS011;4746;35.664;139.738;2023-07-13T08:54:03;5.05;;;4.30;;
9413;SDS011;4746;35.664;139.738;2023-07-13T08:56:57;4.60;;;4.28;;
9413;SDS011;4746;35.664;139.738;2023-07-13T08:59:37;5.45;;;4.25;;
9413;SDS011;4746;35.664;139.738;2023-07-13T09:05:01;5.25;;;4.85;;
9413;SDS011;4746;35.664;139.738;2023-07-13T09:17:05;5.82;;;4.80;;
9413;SDS011;4746;35.664;139.738;2023-07-13T09:20:40;6.35;;;3.95;;
9413;SDS011;4746;35.664;139.738;2023-07-13T09:23:14;5.53;;;5.07;;
9413;SDS011;4746;35.664;139.738;2023-07-13T09:25:47;4.38;;;4.05;;
9413;SDS011;4746;35.664;139.738;2023-07-13T09:28:28;4.35;;;3.70;;
9413;SDS011;4746;35.664;139.738;2023-07-13T09:31:14;5.10;;;4.60;;
9413;SDS011;4746;35.664;139.738;2023-07-13T09:34:12;4.78;;;4.38;;
9413;SDS011;4746;35.664;139.738;2023-07-13T09:36:40;4.70;;;4.32;;
9413;SDS011;4746;35.664;139.738;2023-07-13T09:41:53;4.50;;;4.10;;
9413;SDS011;4746;35.664;139.738;2023-07-13T09:44:58;6.22;;;4.95;;
9413;SDS011;4746;35.664;139.738;2023-07-13T09:47:32;4.85;;;4.45;;
9413;SDS011;4746;35.664;139.738;2023-07-13T09:50:08;5.15;;;4.70;;
9413;SDS011;4746;35.664;139.738;2023-07-13T09:52:45;5.00;;;4.50;;
9413;SDS011;4746;35.664;139.738;2023-07-13T09:55:25;4.53;;;3.83;;
9413;SDS011;4746;35.664;139.738;2023-07-13T09:57:58;5.13;;;4.65;;
9413;SDS011;4746;35.664;139.738;2023-07-13T10:00:41;5.43;;;3.88;;
9413;SDS011;4746;35.664;139.738;2023-07-13T10:03:27;5.90;;;5.40;;
9413;SDS011;4746;35.664;139.738;2023-07-13T10:06:36;5.13;;;4.72;;
9413;SDS011;4746;35.664;139.738;2023-07-13T10:09:02;5.93;;;4.88;;
9413;SDS011;4746;35.664;139.738;2023-07-13T10:11:35;4.80;;;4.30;;
9413;SDS011;4746;35.664;139.738;2023-07-13T10:14:16;5.30;;;4.13;;
9413;SDS011;4746;35.664;139.738;2023-07-13T10:17:01;5.72;;;4.68;;
9413;SDS011;4746;35.664;139.738;2023-07-13T10:19:34;5.22;;;4.75;;
9413;SDS011;4746;35.664;139.738;2023-07-13T10:22:14;4.90;;;4.40;;
9413;SDS011;4746;35.664;139.738;2023-07-13T10:25:00;4.88;;;4.45;;
9413;SDS011;4746;35.664;139.738;2023-07-13T10:27:34;4.47;;;4.00;;
9413;SDS011;4746;35.664;139.738;2023-07-13T10:32:43;4.47;;;4.03;;
9413;SDS011;4746;35.664;139.738;2023-07-13T10:35:15;4.75;;;4.22;;
9413;SDS011;4746;35.664;139.738;2023-07-13T10:37:48;4.68;;;4.28;;
9413;SDS011;4746;35.664;139.738;2023-07-13T10:40:39;4.32;;;3.97;;
9413;SDS011;4746;35.664;139.738;2023-07-13T10:43:27;3.95;;;3.65;;
9413;SDS011;4746;35.664;139.738;2023-07-13T10:46:07;4.47;;;4.18;;
9413;SDS011;4746;35.664;139.738;2023-07-13T10:48:57;4.55;;;4.15;;
9413;SDS011;4746;35.664;139.738;2023-07-13T10:51:30;4.07;;;3.50;;
9413;SDS011;4746;35.664;139.738;2023-07-13T10:54:18;3.92;;;3.63;;
9413;SDS011;4746;35.664;139.738;2023-07-13T10:57:19;4.45;;;4.05;;
9413;SDS011;4746;35.664;139.738;2023-07-13T11:00:33;4.93;;;4.18;;
9413;SDS011;4746;35.664;139.738;2023-07-13T11:02:43;7.53;;;4.10;;
9413;SDS011;4746;35.664;139.738;2023-07-13T11:05:31;5.28;;;4.10;;
9413;SDS011;4746;35.664;139.738;2023-07-13T11:08:51;5.20;;;4.35;;
9413;SDS011;4746;35.664;139.738;2023-07-13T11:10:57;4.75;;;4.35;;
9413;SDS011;4746;35.664;139.738;2023-07-13T11:16:26;7.28;;;4.38;;
9413;SDS011;4746;35.664;139.738;2023-07-13T11:24:50;5.43;;;4.35;;
9413;SDS011;4746;35.664;139.738;2023-07-13T11:33:03;4.57;;;4.15;;
9413;SDS011;4746;35.664;139.738;2023-07-13T11:36:00;4.28;;;3.97;;
9413;SDS011;4746;35.664;139.738;2023-07-13T11:41:21;4.43;;;4.03;;
9413;SDS011;4746;35.664;139.738;2023-07-13T11:43:56;4.03;;;3.70;;
9413;SDS011;4746;35.664;139.738;2023-07-13T11:46:38;3.83;;;3.55;;
9413;SDS011;4746;35.664;139.738;2023-07-13T11:49:17;4.15;;;3.75;;
9413;SDS011;4746;35.664;139.738;2023-07-13T11:51:47;4.78;;;4.38;;
9413;SDS011;4746;35.664;139.738;2023-07-13T11:57:19;4.43;;;4.03;;
9413;SDS011;4746;35.664;139.738;2023-07-13T12:00:21;4.72;;;4.32;;
9413;SDS011;4746;35.664;139.738;2023-07-13T12:02:55;4.68;;;4.35;;
9413;SDS011;4746;35.664;139.738;2023-07-13T12:05:30;5.00;;;4.25;;
9413;SDS011;4746;35.664;139.738;2023-07-13T12:07:58;5.18;;;3.92;;
9413;SDS011;4746;35.664;139.738;2023-07-13T12:10:42;4.32;;;3.88;;
9413;SDS011;4746;35.664;139.738;2023-07-13T12:13:13;4.45;;;4.07;;
9413;SDS011;4746;35.664;139.738;2023-07-13T12:15:41;4.32;;;3.92;;
9413;SDS011;4746;35.664;139.738;2023-07-13T12:18:15;5.47;;;4.50;;
9413;SDS011;4746;35.664;139.738;2023-07-13T12:20:49;4.50;;;4.10;;
9413;SDS011;4746;35.664;139.738;2023-07-13T12:23:28;5.35;;;4.85;;
9413;SDS011;4746;35.664;139.738;2023-07-13T12:26:01;4.78;;;4.32;;
9413;SDS011;4746;35.664;139.738;2023-07-13T12:28:38;4.40;;;4.10;;
9413;SDS011;4746;35.664;139.738;2023-07-13T12:31:25;4.05;;;3.75;;
9413;SDS011;4746;35.664;139.738;2023-07-13T12:34:03;4.82;;;4.43;;
9413;SDS011;4746;35.664;139.738;2023-07-13T12:36:52;4.80;;;4.35;;
9413;SDS011;4746;35.664;139.738;2023-07-13T12:39:25;5.35;;;4.85;;
9413;SDS011;4746;35.664;139.738;2023-07-13T12:42:21;4.43;;;4.03;;
9413;SDS011;4746;35.664;139.738;2023-07-13T12:45:00;5.57;;;4.68;;
9413;SDS011;4746;35.664;139.738;2023-07-13T12:48:22;5.13;;;4.40;;
9413;SDS011;4746;35.664;139.738;2023-07-13T12:50:51;5.30;;;4.15;;
9413;SDS011;4746;35.664;139.738;2023-07-13T12:53:28;4.50;;;4.10;;
9413;SDS011;4746;35.664;139.738;2023-07-13T12:55:58;4.70;;;4.22;;
9413;SDS011;4746;35.664;139.738;2023-07-13T13:01:11;4.93;;;4.57;;
9413;SDS011;4746;35.664;139.738;2023-07-13T13:03:50;5.82;;;5.28;;
9413;SDS011;4746;35.664;139.738;2023-07-13T13:08:56;5.20;;;4.70;;
9413;SDS011;4746;35.664;139.738;2023-07-13T13:11:28;4.90;;;4.40;;
9413;SDS011;4746;35.664;139.738;2023-07-13T13:13:57;4.78;;;4.35;;
9413;SDS011;4746;35.664;139.738;2023-07-13T13:19:19;4.43;;;4.18;;
9413;SDS011;4746;35.664;139.738;2023-07-13T13:21:55;6.28;;;4.88;;
9413;SDS011;4746;35.664;139.738;2023-07-13T13:24:24;5.65;;;4.50;;
9413;SDS011;4746;35.664;139.738;2023-07-13T13:26:54;5.10;;;4.70;;
9413;SDS011;4746;35.664;139.738;2023-07-13T13:29:23;6.25;;;5.30;;
9413;SDS011;4746;35.664;139.738;2023-07-13T13:31:52;5.63;;;5.13;;
9413;SDS011;4746;35.664;139.738;2023-07-13T13:34:21;4.82;;;4.43;;
9413;SDS011;4746;35.664;139.738;2023-07-13T13:36:50;5.35;;;4.85;;
9413;SDS011;4746;35.664;139.738;2023-07-13T13:39:24;5.47;;;5.07;;
9413;SDS011;4746;35.664;139.738;2023-07-13T13:42:04;5.28;;;4.88;;
9413;SDS011;4746;35.664;139.738;2023-07-13T13:44:31;4.93;;;4.47;;
9413;SDS011;4746;35.664;139.738;2023-07-13T13:46:59;5.55;;;5.05;;
9413;SDS011;4746;35.664;139.738;2023-07-13T13:49:27;5.05;;;4.65;;
9413;SDS011;4746;35.664;139.738;2023-07-13T13:51:59;7.13;;;5.18;;
9413;SDS011;4746;35.664;139.738;2023-07-13T13:54:26;4.80;;;4.40;;
9413;SDS011;4746;35.664;139.738;2023-07-13T13:56:54;5.40;;;4.90;;
9413;SDS011;4746;35.664;139.738;2023-07-13T13:59:24;5.78;;;5.15;;
9413;SDS011;4746;35.664;139.738;2023-07-13T14:01:51;6.45;;;5.28;;
9413;SDS011;4746;35.664;139.738;2023-07-13T14:04:20;5.18;;;4.72;;
9413;SDS011;4746;35.664;139.738;2023-07-13T14:06:49;5.30;;;4.75;;
9413;SDS011;4746;35.664;139.738;2023-07-13T14:09:17;5.85;;;5.25;;
9413;SDS011;4746;35.664;139.738;2023-07-13T14:11:46;5.25;;;4.82;;
9413;SDS011;4746;35.664;139.738;2023-07-13T14:14:19;5.68;;;5.18;;
9413;SDS011;4746;35.664;139.738;2023-07-13T14:16:51;5.30;;;4.80;;
9413;SDS011;4746;35.664;139.738;2023-07-13T14:19:22;4.68;;;4.28;;
9413;SDS011;4746;35.664;139.738;2023-07-13T14:21:50;5.13;;;4.43;;
9413;SDS011;4746;35.664;139.738;2023-07-13T14:24:19;4.57;;;4.18;;
9413;SDS011;4746;35.664;139.738;2023-07-13T14:26:49;4.60;;;4.30;;
9413;SDS011;4746;35.664;139.738;2023-07-13T14:29:17;5.25;;;4.55;;
9413;SDS011;4746;35.664;139.738;2023-07-13T14:31:47;4.55;;;4.15;;
9413;SDS011;4746;35.664;139.738;2023-07-13T14:34:14;4.15;;;3.85;;
9413;SDS011;4746;35.664;139.738;2023-07-13T14:36:43;5.22;;;4.57;;
9413;SDS011;4746;35.664;139.738;2023-07-13T14:39:20;6.07;;;5.57;;
9413;SDS011;4746;35.664;139.738;2023-07-13T14:41:54;5.40;;;5.00;;
9413;SDS011;4746;35.664;139.738;2023-07-13T14:44:27;6.28;;;5.32;;
9413;SDS011;4746;35.664;139.738;2023-07-13T14:46:57;6.57;;;5.82;;
9413;SDS011;4746;35.664;139.738;2023-07-13T14:49:32;7.03;;;6.38;;
9413;SDS011;4746;35.664;139.738;2023-07-13T14:54:47;6.95;;;6.25;;
9413;SDS011;4746;35.664;139.738;2023-07-13T14:57:18;8.02;;;6.65;;
9413;SDS011;4746;35.664;139.738;2023-07-13T14:59:47;8.40;;;7.35;;
9413;SDS011;4746;35.664;139.738;2023-07-13T15:02:27;7.07;;;6.38;;
9413;SDS011;4746;35.664;139.738;2023-07-13T15:05:01;8.38;;;6.55;;
9413;SDS011;4746;35.664;139.738;2023-07-13T15:07:38;7.95;;;6.97;;
9413;SDS011;4746;35.664;139.738;2023-07-13T15:10:16;9.52;;;7.07;;
9413;SDS011;4746;35.664;139.738;2023-07-13T15:12:56;9.27;;;7.85;;
9413;SDS011;4746;35.664;139.738;2023-07-13T15:15:29;8.05;;;7.25;;
9413;SDS011;4746;35.664;139.738;2023-07-13T15:18:01;8.32;;;7.13;;
9413;SDS011;4746;35.664;139.738;2023-07-13T15:20:30;9.98;;;7.00;;
9413;SDS011;4746;35.664;139.738;2023-07-13T15:23:01;9.60;;;7.60;;
9413;SDS011;4746;35.664;139.738;2023-07-13T15:25:29;8.75;;;7.88;;
9413;SDS011;4746;35.664;139.738;2023-07-13T15:27:59;7.97;;;7.32;;
9413;SDS011;4746;35.664;139.738;2023-07-13T15:30:32;8.75;;;7.85;;
9413;SDS011;4746;35.664;139.738;2023-07-13T15:33:13;11.05;;;7.82;;
9413;SDS011;4746;35.664;139.738;2023-07-13T15:35:55;14.27;;;7.80;;
9413;SDS011;4746;35.664;139.738;2023-07-13T15:38:26;8.73;;;7.53;;
9413;SDS011;4746;35.664;139.738;2023-07-13T15:40:56;9.27;;;7.88;;
9413;SDS011;4746;35.664;139.738;2023-07-13T15:43:25;9.25;;;8.35;;
9413;SDS011;4746;35.664;139.738;2023-07-13T15:45:53;9.32;;;8.20;;
9413;SDS011;4746;35.664;139.738;2023-07-13T15:48:21;8.48;;;7.68;;
9413;SDS011;4746;35.664;139.738;2023-07-13T15:50:54;8.57;;;7.72;;
9413;SDS011;4746;35.664;139.738;2023-07-13T15:53:29;10.68;;;8.32;;
9413;SDS011;4746;35.664;139.738;2023-07-13T15:55:59;9.13;;;7.90;;
9413;SDS011;4746;35.664;139.738;2023-07-13T15:58:37;9.65;;;8.57;;
9413;SDS011;4746;35.664;139.738;2023-07-13T16:01:04;13.18;;;8.75;;
9413;SDS011;4746;35.664;139.738;2023-07-13T16:03:36;10.50;;;9.25;;
9413;SDS011;4746;35.664;139.738;2023-07-13T16:06:05;13.73;;;9.95;;
9413;SDS011;4746;35.664;139.738;2023-07-13T16:09:00;15.65;;;10.90;;
9413;SDS011;4746;35.664;139.738;2023-07-13T16:11:34;11.45;;;10.32;;